sensor_id;sensor_type;location;lat;lon;timestamp;P1;durP1;ratioP1;P2;durP2;ratioP2
69594;SDS011;56800;52.142;5.364;2022-12-07T00:01:41;13.52;;;4.40;;
69594;SDS011;56800;52.142;5.364;2022-12-07T00:04:10;13.23;;;4.47;;
69594;SDS011;56800;52.142;5.364;2022-12-07T00:06:40;13.55;;;4.15;;
69594;SDS011;56800;52.142;5.364;2022-12-07T00:09:13;10.13;;;4.00;;
69594;SDS011;56800;52.142;5.364;2022-12-07T00:11:41;9.35;;;3.60;;
69594;SDS011;56800;52.142;5.364;2022-12-07T00:14:12;15.27;;;4.38;;
69594;SDS011;56800;52.142;5.364;2022-12-07T00:16:40;12.52;;;3.97;;
69594;SDS011;56800;52.142;5.364;2022-12-07T00:19:09;10.65;;;3.85;;
69594;SDS011;56800;52.142;5.364;2022-12-07T00:21:37;8.97;;;3.50;;
69594;SDS011;56800;52.142;5.364;2022-12-07T00:24:04;11.35;;;3.53;;
69594;SDS011;56800;52.142;5.364;2022-12-07T00:26:32;15.73;;;4.00;;
69594;SDS011;56800;52.142;5.364;2022-12-07T00:29:02;11.80;;;3.90;;
69594;SDS011;56800;52.142;5.364;2022-12-07T00:31:32;9.55;;;3.70;;
69594;SDS011;56800;52.142;5.364;2022-12-07T00:34:01;14.70;;;3.87;;
69594;SDS011;56800;52.142;5.364;2022-12-07T00:36:28;9.95;;;4.30;;
69594;SDS011;56800;52.142;5.364;2022-12-07T00:38:55;13.40;;;3.92;;
69594;SDS011;56800;52.142;5.364;2022-12-07T00:41:24;11.35;;;3.60;;
69594;SDS011;56800;52.142;5.364;2022-12-07T00:43:52;10.98;;;3.60;;
69594;SDS011;56800;52.142;5.364;2022-12-07T00:46:20;13.83;;;3.43;;
69594;SDS011;56800;52.142;5.364;2022-12-07T00:48:48;11.18;;;3.53;;
69594;SDS011;56800;52.142;5.364;2022-12-07T00:51:16;10.77;;;3.30;;
69594;SDS011;56800;52.142;5.364;2022-12-07T00:53:43;9.02;;;3.25;;
69594;SDS011;56800;52.142;5.364;2022-12-07T00:56:23;11.52;;;3.10;;
69594;SDS011;56800;52.142;5.364;2022-12-07T00:58:52;5.80;;;2.60;;
69594;SDS011;56800;52.142;5.364;2022-12-07T01:01:20;8.18;;;3.00;;
69594;SDS011;56800;52.142;5.364;2022-12-07T01:03:47;8.65;;;3.42;;
69594;SDS011;56800;52.142;5.364;2022-12-07T01:06:18;10.95;;;3.20;;
69594;SDS011;56800;52.142;5.364;2022-12-07T01:08:46;9.20;;;3.42;;
69594;SDS011;56800;52.142;5.364;2022-12-07T01:11:15;8.80;;;3.43;;
69594;SDS011;56800;52.142;5.364;2022-12-07T01:13:43;7.10;;;3.08;;
69594;SDS011;56800;52.142;5.364;2022-12-07T01:16:11;8.65;;;3.22;;
69594;SDS011;56800;52.142;5.364;2022-12-07T01:18:41;9.50;;;3.03;;
69594;SDS011;56800;52.142;5.364;2022-12-07T01:21:12;11.88;;;3.28;;
69594;SDS011;56800;52.142;5.364;2022-12-07T01:23:43;8.73;;;2.87;;
69594;SDS011;56800;52.142;5.364;2022-12-07T01:26:19;10.73;;;2.92;;
69594;SDS011;56800;52.142;5.364;2022-12-07T01:28:50;6.82;;;2.63;;
69594;SDS011;56800;52.142;5.364;2022-12-07T01:31:19;11.35;;;2.60;;
69594;SDS011;56800;52.142;5.364;2022-12-07T01:33:52;9.85;;;2.80;;
69594;SDS011;56800;52.142;5.364;2022-12-07T01:36:21;9.03;;;2.80;;
69594;SDS011;56800;52.142;5.364;2022-12-07T01:38:51;10.13;;;2.45;;
69594;SDS011;56800;52.142;5.364;2022-12-07T01:41:22;7.50;;;2.08;;
69594;SDS011;56800;52.142;5.364;2022-12-07T01:52:04;11.20;;;2.85;;
69594;SDS011;56800;52.142;5.364;2022-12-07T01:54:44;6.80;;;2.60;;
69594;SDS011;56800;52.142;5.364;2022-12-07T01:57:13;12.63;;;2.72;;
69594;SDS011;56800;52.142;5.364;2022-12-07T01:59:43;7.55;;;2.70;;
69594;SDS011;56800;52.142;5.364;2022-12-07T02:02:15;10.60;;;2.90;;
69594;SDS011;56800;52.142;5.364;2022-12-07T02:04:45;10.82;;;2.95;;
69594;SDS011;56800;52.142;5.364;2022-12-07T02:07:12;9.05;;;2.70;;
69594;SDS011;56800;52.142;5.364;2022-12-07T02:09:39;11.07;;;2.70;;
69594;SDS011;56800;52.142;5.364;2022-12-07T02:12:06;11.07;;;2.95;;
69594;SDS011;56800;52.142;5.364;2022-12-07T02:14:32;8.93;;;2.83;;
69594;SDS011;56800;52.142;5.364;2022-12-07T02:17:08;9.55;;;3.00;;
69594;SDS011;56800;52.142;5.364;2022-12-07T02:22:47;10.48;;;2.47;;
69594;SDS011;56800;52.142;5.364;2022-12-07T02:25:43;14.55;;;2.50;;
69594;SDS011;56800;52.142;5.364;2022-12-07T02:31:23;14.40;;;3.05;;
69594;SDS011;56800;52.142;5.364;2022-12-07T02:33:54;9.80;;;2.80;;
69594;SDS011;56800;52.142;5.364;2022-12-07T02:36:36;12.65;;;2.35;;
69594;SDS011;56800;52.142;5.364;2022-12-07T02:39:10;11.90;;;2.55;;
69594;SDS011;56800;52.142;5.364;2022-12-07T02:41:44;15.73;;;2.53;;
69594;SDS011;56800;52.142;5.364;2022-12-07T02:44:15;7.75;;;2.20;;
69594;SDS011;56800;52.142;5.364;2022-12-07T02:46:59;9.68;;;2.60;;
69594;SDS011;56800;52.142;5.364;2022-12-07T02:49:29;12.25;;;2.67;;
69594;SDS011;56800;52.142;5.364;2022-12-07T02:51:57;10.18;;;2.88;;
69594;SDS011;56800;52.142;5.364;2022-12-07T02:54:24;9.97;;;2.80;;
69594;SDS011;56800;52.142;5.364;2022-12-07T02:56:52;7.13;;;2.13;;
69594;SDS011;56800;52.142;5.364;2022-12-07T03:08:13;8.63;;;1.77;;
69594;SDS011;56800;52.142;5.364;2022-12-07T03:11:24;11.27;;;2.15;;
69594;SDS011;56800;52.142;5.364;2022-12-07T03:16:46;12.90;;;2.08;;
69594;SDS011;56800;52.142;5.364;2022-12-07T03:19:23;10.52;;;2.35;;
69594;SDS011;56800;52.142;5.364;2022-12-07T03:22:06;11.07;;;1.90;;
69594;SDS011;56800;52.142;5.364;2022-12-07T03:24:40;7.95;;;2.15;;
69594;SDS011;56800;52.142;5.364;2022-12-07T03:27:13;9.40;;;1.77;;
69594;SDS011;56800;52.142;5.364;2022-12-07T03:29:48;6.78;;;2.00;;
69594;SDS011;56800;52.142;5.364;2022-12-07T03:32:24;10.45;;;2.20;;
69594;SDS011;56800;52.142;5.364;2022-12-07T03:34:57;5.10;;;1.63;;
69594;SDS011;56800;52.142;5.364;2022-12-07T03:42:32;11.02;;;1.90;;
69594;SDS011;56800;52.142;5.364;2022-12-07T03:45:00;7.40;;;1.77;;
69594;SDS011;56800;52.142;5.364;2022-12-07T03:50:28;7.63;;;1.65;;
69594;SDS011;56800;52.142;5.364;2022-12-07T03:53:15;6.25;;;1.70;;
69594;SDS011;56800;52.142;5.364;2022-12-07T03:55:48;8.10;;;1.90;;
69594;SDS011;56800;52.142;5.364;2022-12-07T03:58:19;8.18;;;1.52;;
69594;SDS011;56800;52.142;5.364;2022-12-07T04:00:48;6.83;;;1.70;;
69594;SDS011;56800;52.142;5.364;2022-12-07T04:03:16;14.05;;;1.85;;
69594;SDS011;56800;52.142;5.364;2022-12-07T04:05:43;12.02;;;2.00;;
69594;SDS011;56800;52.142;5.364;2022-12-07T04:08:10;7.25;;;1.67;;
69594;SDS011;56800;52.142;5.364;2022-12-07T04:10:37;5.82;;;1.58;;
69594;SDS011;56800;52.142;5.364;2022-12-07T04:13:04;8.77;;;1.60;;
69594;SDS011;56800;52.142;5.364;2022-12-07T04:15:30;9.02;;;1.40;;
69594;SDS011;56800;52.142;5.364;2022-12-07T04:17:57;6.45;;;1.48;;
69594;SDS011;56800;52.142;5.364;2022-12-07T04:20:24;7.38;;;1.80;;
69594;SDS011;56800;52.142;5.364;2022-12-07T04:22:51;5.07;;;1.02;;
69594;SDS011;56800;52.142;5.364;2022-12-07T04:25:17;13.33;;;1.97;;
69594;SDS011;56800;52.142;5.364;2022-12-07T04:27:44;6.18;;;1.23;;
69594;SDS011;56800;52.142;5.364;2022-12-07T04:30:11;8.23;;;1.42;;
69594;SDS011;56800;52.142;5.364;2022-12-07T04:32:38;6.53;;;1.13;;
69594;SDS011;56800;52.142;5.364;2022-12-07T04:35:04;8.48;;;1.30;;
69594;SDS011;56800;52.142;5.364;2022-12-07T04:37:31;9.80;;;1.53;;
69594;SDS011;56800;52.142;5.364;2022-12-07T04:39:58;12.35;;;1.55;;
69594;SDS011;56800;52.142;5.364;2022-12-07T04:42:26;8.43;;;1.52;;
69594;SDS011;56800;52.142;5.364;2022-12-07T04:44:52;10.43;;;1.55;;
69594;SDS011;56800;52.142;5.364;2022-12-07T04:47:19;10.23;;;1.60;;
69594;SDS011;56800;52.142;5.364;2022-12-07T04:49:46;8.03;;;1.53;;
69594;SDS011;56800;52.142;5.364;2022-12-07T04:52:13;8.73;;;1.17;;
69594;SDS011;56800;52.142;5.364;2022-12-07T04:54:39;8.05;;;1.77;;
69594;SDS011;56800;52.142;5.364;2022-12-07T04:57:06;8.30;;;1.20;;
69594;SDS011;56800;52.142;5.364;2022-12-07T04:59:33;12.18;;;1.45;;
69594;SDS011;56800;52.142;5.364;2022-12-07T05:01:59;7.87;;;1.40;;
69594;SDS011;56800;52.142;5.364;2022-12-07T05:04:26;6.35;;;1.30;;
69594;SDS011;56800;52.142;5.364;2022-12-07T05:06:53;4.25;;;1.00;;
69594;SDS011;56800;52.142;5.364;2022-12-07T05:09:19;9.85;;;1.42;;
69594;SDS011;56800;52.142;5.364;2022-12-07T05:11:46;8.52;;;1.20;;
69594;SDS011;56800;52.142;5.364;2022-12-07T05:14:16;11.10;;;1.40;;
69594;SDS011;56800;52.142;5.364;2022-12-07T05:16:46;6.72;;;1.17;;
69594;SDS011;56800;52.142;5.364;2022-12-07T05:19:15;7.32;;;1.08;;
69594;SDS011;56800;52.142;5.364;2022-12-07T05:21:42;5.75;;;1.25;;
69594;SDS011;56800;52.142;5.364;2022-12-07T05:24:10;4.15;;;0.82;;
69594;SDS011;56800;52.142;5.364;2022-12-07T05:26:39;6.07;;;1.13;;
69594;SDS011;56800;52.142;5.364;2022-12-07T05:29:06;8.75;;;1.23;;
69594;SDS011;56800;52.142;5.364;2022-12-07T05:31:32;10.13;;;1.33;;
69594;SDS011;56800;52.142;5.364;2022-12-07T05:34:00;6.10;;;0.98;;
69594;SDS011;56800;52.142;5.364;2022-12-07T05:36:27;8.50;;;1.40;;
69594;SDS011;56800;52.142;5.364;2022-12-07T05:38:54;8.30;;;1.07;;
69594;SDS011;56800;52.142;5.364;2022-12-07T05:41:21;10.77;;;1.30;;
69594;SDS011;56800;52.142;5.364;2022-12-07T05:44:07;7.97;;;1.17;;
69594;SDS011;56800;52.142;5.364;2022-12-07T05:46:34;6.90;;;1.20;;
69594;SDS011;56800;52.142;5.364;2022-12-07T05:49:00;6.00;;;1.30;;
69594;SDS011;56800;52.142;5.364;2022-12-07T05:51:28;6.33;;;1.30;;
69594;SDS011;56800;52.142;5.364;2022-12-07T05:53:54;9.65;;;1.10;;
69594;SDS011;56800;52.142;5.364;2022-12-07T05:56:21;11.75;;;1.25;;
69594;SDS011;56800;52.142;5.364;2022-12-07T05:58:48;8.68;;;1.10;;
69594;SDS011;56800;52.142;5.364;2022-12-07T06:01:34;6.78;;;1.25;;
69594;SDS011;56800;52.142;5.364;2022-12-07T06:04:02;7.83;;;1.13;;
69594;SDS011;56800;52.142;5.364;2022-12-07T06:06:28;8.52;;;1.10;;
69594;SDS011;56800;52.142;5.364;2022-12-07T06:08:55;7.10;;;1.58;;
69594;SDS011;56800;52.142;5.364;2022-12-07T06:11:22;13.10;;;1.30;;
69594;SDS011;56800;52.142;5.364;2022-12-07T06:14:07;7.93;;;1.42;;
69594;SDS011;56800;52.142;5.364;2022-12-07T06:16:34;10.83;;;1.40;;
69594;SDS011;56800;52.142;5.364;2022-12-07T06:19:01;11.48;;;1.35;;
69594;SDS011;56800;52.142;5.364;2022-12-07T06:21:28;11.85;;;1.55;;
69594;SDS011;56800;52.142;5.364;2022-12-07T06:23:54;6.90;;;2.25;;
69594;SDS011;56800;52.142;5.364;2022-12-07T06:26:21;13.73;;;1.55;;
69594;SDS011;56800;52.142;5.364;2022-12-07T06:28:48;6.67;;;1.50;;
69594;SDS011;56800;52.142;5.364;2022-12-07T06:31:15;7.32;;;1.50;;
69594;SDS011;56800;52.142;5.364;2022-12-07T06:33:42;10.80;;;1.30;;
69594;SDS011;56800;52.142;5.364;2022-12-07T06:36:09;5.07;;;1.40;;
69594;SDS011;56800;52.142;5.364;2022-12-07T06:38:36;5.72;;;1.33;;
69594;SDS011;56800;52.142;5.364;2022-12-07T06:41:03;8.10;;;1.37;;
69594;SDS011;56800;52.142;5.364;2022-12-07T06:43:30;12.70;;;1.90;;
69594;SDS011;56800;52.142;5.364;2022-12-07T06:45:57;6.65;;;1.60;;
69594;SDS011;56800;52.142;5.364;2022-12-07T06:48:23;8.38;;;1.35;;
69594;SDS011;56800;52.142;5.364;2022-12-07T06:50:50;8.98;;;1.75;;
69594;SDS011;56800;52.142;5.364;2022-12-07T06:53:20;9.07;;;1.97;;
69594;SDS011;56800;52.142;5.364;2022-12-07T06:55:47;7.60;;;1.33;;
69594;SDS011;56800;52.142;5.364;2022-12-07T06:58:14;8.48;;;1.80;;
69594;SDS011;56800;52.142;5.364;2022-12-07T07:00:41;9.50;;;1.48;;
69594;SDS011;56800;52.142;5.364;2022-12-07T07:03:08;7.20;;;1.40;;
69594;SDS011;56800;52.142;5.364;2022-12-07T07:05:34;7.03;;;1.40;;
69594;SDS011;56800;52.142;5.364;2022-12-07T07:08:01;9.65;;;1.75;;
69594;SDS011;56800;52.142;5.364;2022-12-07T07:10:48;10.18;;;1.58;;
69594;SDS011;56800;52.142;5.364;2022-12-07T07:13:15;8.82;;;1.50;;
69594;SDS011;56800;52.142;5.364;2022-12-07T07:15:42;10.95;;;1.58;;
69594;SDS011;56800;52.142;5.364;2022-12-07T07:18:08;10.37;;;1.50;;
69594;SDS011;56800;52.142;5.364;2022-12-07T07:20:36;10.32;;;2.10;;
69594;SDS011;56800;52.142;5.364;2022-12-07T07:23:03;6.85;;;1.70;;
69594;SDS011;56800;52.142;5.364;2022-12-07T07:25:30;10.63;;;1.73;;
69594;SDS011;56800;52.142;5.364;2022-12-07T07:27:57;8.88;;;1.65;;
69594;SDS011;56800;52.142;5.364;2022-12-07T07:30:25;8.37;;;1.60;;
69594;SDS011;56800;52.142;5.364;2022-12-07T07:32:55;7.13;;;1.30;;
69594;SDS011;56800;52.142;5.364;2022-12-07T07:35:26;8.75;;;1.50;;
69594;SDS011;56800;52.142;5.364;2022-12-07T07:37:54;11.05;;;1.70;;
69594;SDS011;56800;52.142;5.364;2022-12-07T07:40:21;3.88;;;1.25;;
69594;SDS011;56800;52.142;5.364;2022-12-07T07:42:49;8.33;;;1.80;;
69594;SDS011;56800;52.142;5.364;2022-12-07T07:45:16;12.20;;;1.50;;
69594;SDS011;56800;52.142;5.364;2022-12-07T07:47:44;9.60;;;1.98;;
69594;SDS011;56800;52.142;5.364;2022-12-07T07:50:10;13.02;;;1.60;;
69594;SDS011;56800;52.142;5.364;2022-12-07T07:52:37;7.60;;;1.50;;
69594;SDS011;56800;52.142;5.364;2022-12-07T07:55:04;10.90;;;1.77;;
69594;SDS011;56800;52.142;5.364;2022-12-07T07:57:31;8.15;;;1.27;;
69594;SDS011;56800;52.142;5.364;2022-12-07T07:59:58;11.52;;;2.35;;
69594;SDS011;56800;52.142;5.364;2022-12-07T08:02:25;8.35;;;1.50;;
69594;SDS011;56800;52.142;5.364;2022-12-07T08:04:52;20.85;;;2.22;;
69594;SDS011;56800;52.142;5.364;2022-12-07T08:07:18;12.47;;;1.40;;
69594;SDS011;56800;52.142;5.364;2022-12-07T08:09:45;7.93;;;1.45;;
69594;SDS011;56800;52.142;5.364;2022-12-07T08:12:11;15.30;;;1.90;;
69594;SDS011;56800;52.142;5.364;2022-12-07T08:14:38;11.25;;;1.63;;
69594;SDS011;56800;52.142;5.364;2022-12-07T08:17:05;9.27;;;1.63;;
69594;SDS011;56800;52.142;5.364;2022-12-07T08:19:31;12.27;;;1.60;;
69594;SDS011;56800;52.142;5.364;2022-12-07T08:21:59;14.88;;;2.00;;
69594;SDS011;56800;52.142;5.364;2022-12-07T08:24:25;6.25;;;1.33;;
69594;SDS011;56800;52.142;5.364;2022-12-07T08:26:52;7.75;;;1.60;;
69594;SDS011;56800;52.142;5.364;2022-12-07T08:29:19;11.35;;;1.58;;
69594;SDS011;56800;52.142;5.364;2022-12-07T08:31:46;10.73;;;1.63;;
69594;SDS011;56800;52.142;5.364;2022-12-07T08:34:13;11.88;;;1.50;;
69594;SDS011;56800;52.142;5.364;2022-12-07T08:36:40;5.03;;;1.35;;
69594;SDS011;56800;52.142;5.364;2022-12-07T08:39:06;9.13;;;1.40;;
69594;SDS011;56800;52.142;5.364;2022-12-07T08:41:53;7.32;;;1.52;;
69594;SDS011;56800;52.142;5.364;2022-12-07T08:44:20;9.07;;;1.67;;
69594;SDS011;56800;52.142;5.364;2022-12-07T08:46:51;11.05;;;1.67;;
69594;SDS011;56800;52.142;5.364;2022-12-07T08:49:30;7.05;;;2.20;;
69594;SDS011;56800;52.142;5.364;2022-12-07T08:52:00;13.45;;;1.80;;
69594;SDS011;56800;52.142;5.364;2022-12-07T08:54:30;13.20;;;1.85;;
69594;SDS011;56800;52.142;5.364;2022-12-07T08:56:57;14.67;;;1.83;;
69594;SDS011;56800;52.142;5.364;2022-12-07T08:59:24;7.53;;;2.17;;
69594;SDS011;56800;52.142;5.364;2022-12-07T09:01:52;8.95;;;1.60;;
69594;SDS011;56800;52.142;5.364;2022-12-07T09:04:19;6.95;;;1.70;;
69594;SDS011;56800;52.142;5.364;2022-12-07T09:06:46;8.68;;;1.70;;
69594;SDS011;56800;52.142;5.364;2022-12-07T09:09:13;10.20;;;2.00;;
69594;SDS011;56800;52.142;5.364;2022-12-07T09:11:40;5.82;;;2.08;;
69594;SDS011;56800;52.142;5.364;2022-12-07T09:14:07;7.90;;;1.80;;
69594;SDS011;56800;52.142;5.364;2022-12-07T09:16:34;8.50;;;1.80;;
69594;SDS011;56800;52.142;5.364;2022-12-07T09:19:00;8.63;;;1.63;;
69594;SDS011;56800;52.142;5.364;2022-12-07T09:21:27;10.90;;;1.50;;
69594;SDS011;56800;52.142;5.364;2022-12-07T09:23:54;8.02;;;1.63;;
69594;SDS011;56800;52.142;5.364;2022-12-07T09:26:20;7.82;;;1.65;;
69594;SDS011;56800;52.142;5.364;2022-12-07T09:28:47;6.38;;;1.40;;
69594;SDS011;56800;52.142;5.364;2022-12-07T09:31:14;7.07;;;1.40;;
69594;SDS011;56800;52.142;5.364;2022-12-07T09:34:00;7.03;;;1.60;;
69594;SDS011;56800;52.142;5.364;2022-12-07T09:36:27;7.97;;;1.60;;
69594;SDS011;56800;52.142;5.364;2022-12-07T09:38:55;12.35;;;1.50;;
69594;SDS011;56800;52.142;5.364;2022-12-07T09:41:21;6.15;;;1.40;;
69594;SDS011;56800;52.142;5.364;2022-12-07T09:43:49;5.35;;;1.48;;
69594;SDS011;56800;52.142;5.364;2022-12-07T09:46:17;6.13;;;1.60;;
69594;SDS011;56800;52.142;5.364;2022-12-07T09:48:45;10.35;;;1.42;;
69594;SDS011;56800;52.142;5.364;2022-12-07T09:51:14;9.82;;;1.27;;
69594;SDS011;56800;52.142;5.364;2022-12-07T09:53:50;6.82;;;1.23;;
69594;SDS011;56800;52.142;5.364;2022-12-07T09:56:18;5.70;;;1.40;;
69594;SDS011;56800;52.142;5.364;2022-12-07T09:58:46;4.97;;;1.40;;
69594;SDS011;56800;52.142;5.364;2022-12-07T10:01:15;8.05;;;1.42;;
69594;SDS011;56800;52.142;5.364;2022-12-07T10:04:26;9.60;;;1.23;;
69594;SDS011;56800;52.142;5.364;2022-12-07T10:06:42;11.32;;;3.85;;
69594;SDS011;56800;52.142;5.364;2022-12-07T10:09:12;15.20;;;6.07;;
69594;SDS011;56800;52.142;5.364;2022-12-07T10:14:28;10.32;;;4.45;;
69594;SDS011;56800;52.142;5.364;2022-12-07T10:20:14;7.13;;;1.90;;
69594;SDS011;56800;52.142;5.364;2022-12-07T10:25:38;5.73;;;1.47;;
69594;SDS011;56800;52.142;5.364;2022-12-07T10:30:33;7.75;;;1.42;;
69594;SDS011;56800;52.142;5.364;2022-12-07T10:33:36;7.45;;;1.80;;
69594;SDS011;56800;52.142;5.364;2022-12-07T10:36:17;11.35;;;1.67;;
69594;SDS011;56800;52.142;5.364;2022-12-07T10:38:47;10.27;;;2.07;;
69594;SDS011;56800;52.142;5.364;2022-12-07T10:41:16;6.47;;;1.40;;
69594;SDS011;56800;52.142;5.364;2022-12-07T10:43:47;8.35;;;1.85;;
69594;SDS011;56800;52.142;5.364;2022-12-07T10:49:39;7.13;;;1.42;;
69594;SDS011;56800;52.142;5.364;2022-12-07T10:52:34;6.87;;;1.77;;
69594;SDS011;56800;52.142;5.364;2022-12-07T10:55:12;6.13;;;1.40;;
69594;SDS011;56800;52.142;5.364;2022-12-07T10:58:21;7.07;;;1.50;;
69594;SDS011;56800;52.142;5.364;2022-12-07T11:04:24;7.65;;;1.95;;
69594;SDS011;56800;52.142;5.364;2022-12-07T11:07:07;10.33;;;1.70;;
69594;SDS011;56800;52.142;5.364;2022-12-07T11:10:16;7.32;;;1.42;;
69594;SDS011;56800;52.142;5.364;2022-12-07T11:15:43;5.68;;;1.45;;
69594;SDS011;56800;52.142;5.364;2022-12-07T11:18:29;10.13;;;1.33;;
69594;SDS011;56800;52.142;5.364;2022-12-07T11:21:24;5.83;;;1.30;;
69594;SDS011;56800;52.142;5.364;2022-12-07T11:23:59;8.38;;;1.58;;
69594;SDS011;56800;52.142;5.364;2022-12-07T11:32:22;10.23;;;1.52;;
69594;SDS011;56800;52.142;5.364;2022-12-07T11:38:15;10.75;;;1.83;;
69594;SDS011;56800;52.142;5.364;2022-12-07T11:40:50;9.23;;;1.60;;
69594;SDS011;56800;52.142;5.364;2022-12-07T11:43:28;7.60;;;1.38;;
69594;SDS011;56800;52.142;5.364;2022-12-07T11:46:00;7.05;;;1.52;;
69594;SDS011;56800;52.142;5.364;2022-12-07T11:48:35;9.47;;;1.20;;
69594;SDS011;56800;52.142;5.364;2022-12-07T11:51:12;6.55;;;1.20;;
69594;SDS011;56800;52.142;5.364;2022-12-07T11:53:43;7.55;;;1.45;;
69594;SDS011;56800;52.142;5.364;2022-12-07T11:56:24;6.70;;;1.75;;
69594;SDS011;56800;52.142;5.364;2022-12-07T11:58:55;7.90;;;1.30;;
69594;SDS011;56800;52.142;5.364;2022-12-07T12:01:28;6.30;;;1.13;;
69594;SDS011;56800;52.142;5.364;2022-12-07T12:04:13;9.10;;;1.30;;
69594;SDS011;56800;52.142;5.364;2022-12-07T12:06:51;8.50;;;1.27;;
69594;SDS011;56800;52.142;5.364;2022-12-07T12:09:22;7.40;;;1.40;;
69594;SDS011;56800;52.142;5.364;2022-12-07T12:12:28;8.68;;;2.17;;
69594;SDS011;56800;52.142;5.364;2022-12-07T12:21:27;9.90;;;1.60;;
69594;SDS011;56800;52.142;5.364;2022-12-07T12:23:57;5.45;;;1.70;;
69594;SDS011;56800;52.142;5.364;2022-12-07T12:26:30;8.55;;;1.38;;
69594;SDS011;56800;52.142;5.364;2022-12-07T12:29:00;6.43;;;1.60;;
69594;SDS011;56800;52.142;5.364;2022-12-07T12:31:34;9.25;;;3.85;;
69594;SDS011;56800;52.142;5.364;2022-12-07T12:37:00;7.63;;;1.70;;
69594;SDS011;56800;52.142;5.364;2022-12-07T12:39:27;7.85;;;1.40;;
69594;SDS011;56800;52.142;5.364;2022-12-07T12:41:54;6.77;;;1.17;;
69594;SDS011;56800;52.142;5.364;2022-12-07T12:46:58;7.38;;;1.20;;
69594;SDS011;56800;52.142;5.364;2022-12-07T12:51:52;7.63;;;1.48;;
69594;SDS011;56800;52.142;5.364;2022-12-07T12:55:11;7.13;;;1.00;;
69594;SDS011;56800;52.142;5.364;2022-12-07T12:57:40;5.07;;;0.88;;
69594;SDS011;56800;52.142;5.364;2022-12-07T13:00:15;3.17;;;0.70;;
69594;SDS011;56800;52.142;5.364;2022-12-07T13:02:56;3.13;;;0.80;;
69594;SDS011;56800;52.142;5.364;2022-12-07T13:05:29;6.18;;;0.60;;
69594;SDS011;56800;52.142;5.364;2022-12-07T13:08:01;3.10;;;0.70;;
69594;SDS011;56800;52.142;5.364;2022-12-07T13:10:41;3.20;;;0.70;;
69594;SDS011;56800;52.142;5.364;2022-12-07T13:15:46;4.07;;;0.80;;
69594;SDS011;56800;52.142;5.364;2022-12-07T13:23:25;7.78;;;3.13;;
69594;SDS011;56800;52.142;5.364;2022-12-07T13:34:27;12.10;;;5.90;;
69594;SDS011;56800;52.142;5.364;2022-12-07T13:36:56;14.77;;;5.80;;
69594;SDS011;56800;52.142;5.364;2022-12-07T13:39:24;11.50;;;4.40;;
69594;SDS011;56800;52.142;5.364;2022-12-07T13:41:53;9.98;;;3.92;;
69594;SDS011;56800;52.142;5.364;2022-12-07T13:44:25;8.02;;;2.63;;
69594;SDS011;56800;52.142;5.364;2022-12-07T13:49:29;7.88;;;1.88;;
69594;SDS011;56800;52.142;5.364;2022-12-07T13:52:17;10.88;;;1.40;;
69594;SDS011;56800;52.142;5.364;2022-12-07T13:54:54;8.43;;;1.00;;
69594;SDS011;56800;52.142;5.364;2022-12-07T13:57:28;7.90;;;1.33;;
69594;SDS011;56800;52.142;5.364;2022-12-07T13:59:57;6.10;;;1.60;;
69594;SDS011;56800;52.142;5.364;2022-12-07T14:02:28;6.53;;;1.60;;
69594;SDS011;56800;52.142;5.364;2022-12-07T14:05:45;5.97;;;1.23;;
69594;SDS011;56800;52.142;5.364;2022-12-07T14:08:01;8.10;;;1.48;;
69594;SDS011;56800;52.142;5.364;2022-12-07T14:10:29;3.97;;;1.20;;
69594;SDS011;56800;52.142;5.364;2022-12-07T14:12:57;6.13;;;1.13;;
69594;SDS011;56800;52.142;5.364;2022-12-07T14:15:28;6.72;;;1.45;;
69594;SDS011;56800;52.142;5.364;2022-12-07T14:18:00;6.32;;;1.80;;
69594;SDS011;56800;52.142;5.364;2022-12-07T14:20:37;5.18;;;1.55;;
69594;SDS011;56800;52.142;5.364;2022-12-07T14:23:21;6.55;;;1.80;;
69594;SDS011;56800;52.142;5.364;2022-12-07T14:25:51;8.77;;;1.87;;
69594;SDS011;56800;52.142;5.364;2022-12-07T14:28:29;10.98;;;1.63;;
69594;SDS011;56800;52.142;5.364;2022-12-07T14:30:57;7.00;;;1.50;;
69594;SDS011;56800;52.142;5.364;2022-12-07T14:33:25;9.32;;;1.60;;
69594;SDS011;56800;52.142;5.364;2022-12-07T14:35:53;6.85;;;1.80;;
69594;SDS011;56800;52.142;5.364;2022-12-07T14:38:24;11.03;;;3.00;;
69594;SDS011;56800;52.142;5.364;2022-12-07T14:40:52;7.93;;;2.83;;
69594;SDS011;56800;52.142;5.364;2022-12-07T14:43:19;7.80;;;2.63;;
69594;SDS011;56800;52.142;5.364;2022-12-07T14:45:46;9.55;;;2.20;;
69594;SDS011;56800;52.142;5.364;2022-12-07T14:48:14;3.90;;;1.33;;
69594;SDS011;56800;52.142;5.364;2022-12-07T14:51:01;5.93;;;1.10;;
69594;SDS011;56800;52.142;5.364;2022-12-07T14:53:50;5.38;;;1.00;;
69594;SDS011;56800;52.142;5.364;2022-12-07T14:56:23;3.22;;;0.90;;
69594;SDS011;56800;52.142;5.364;2022-12-07T14:58:50;4.72;;;0.88;;
69594;SDS011;56800;52.142;5.364;2022-12-07T15:01:16;3.97;;;0.85;;
69594;SDS011;56800;52.142;5.364;2022-12-07T15:03:43;5.67;;;1.00;;
69594;SDS011;56800;52.142;5.364;2022-12-07T15:06:10;4.93;;;0.80;;
69594;SDS011;56800;52.142;5.364;2022-12-07T15:08:40;4.35;;;1.00;;
69594;SDS011;56800;52.142;5.364;2022-12-07T15:11:10;5.82;;;1.40;;
69594;SDS011;56800;52.142;5.364;2022-12-07T15:13:38;8.40;;;3.80;;
69594;SDS011;56800;52.142;5.364;2022-12-07T15:16:23;14.20;;;6.20;;
69594;SDS011;56800;52.142;5.364;2022-12-07T15:18:50;10.10;;;3.83;;
69594;SDS011;56800;52.142;5.364;2022-12-07T15:21:37;7.85;;;2.50;;
69594;SDS011;56800;52.142;5.364;2022-12-07T15:24:04;9.75;;;1.60;;
69594;SDS011;56800;52.142;5.364;2022-12-07T15:26:31;6.78;;;1.40;;
69594;SDS011;56800;52.142;5.364;2022-12-07T15:28:58;13.03;;;2.20;;
69594;SDS011;56800;52.142;5.364;2022-12-07T15:31:24;5.07;;;1.60;;
69594;SDS011;56800;52.142;5.364;2022-12-07T15:34:11;6.45;;;2.33;;
69594;SDS011;56800;52.142;5.364;2022-12-07T15:36:38;7.03;;;2.10;;
69594;SDS011;56800;52.142;5.364;2022-12-07T15:39:04;8.60;;;2.13;;
69594;SDS011;56800;52.142;5.364;2022-12-07T15:41:39;7.57;;;1.93;;
69594;SDS011;56800;52.142;5.364;2022-12-07T15:44:08;5.07;;;1.60;;
69594;SDS011;56800;52.142;5.364;2022-12-07T15:46:56;5.60;;;1.70;;
69594;SDS011;56800;52.142;5.364;2022-12-07T15:49:23;5.95;;;1.83;;
69594;SDS011;56800;52.142;5.364;2022-12-07T15:51:49;5.20;;;1.60;;
69594;SDS011;56800;52.142;5.364;2022-12-07T15:54:23;7.43;;;1.30;;
69594;SDS011;56800;52.142;5.364;2022-12-07T15:56:52;5.00;;;1.50;;
69594;SDS011;56800;52.142;5.364;2022-12-07T15:59:19;6.82;;;1.30;;
69594;SDS011;56800;52.142;5.364;2022-12-07T16:01:45;5.82;;;1.30;;
69594;SDS011;56800;52.142;5.364;2022-12-07T16:04:12;5.13;;;1.15;;
69594;SDS011;56800;52.142;5.364;2022-12-07T16:06:39;4.17;;;1.10;;
69594;SDS011;56800;52.142;5.364;2022-12-07T16:09:06;8.20;;;1.38;;
69594;SDS011;56800;52.142;5.364;2022-12-07T16:11:33;6.97;;;1.35;;
69594;SDS011;56800;52.142;5.364;2022-12-07T16:14:00;5.57;;;1.38;;
69594;SDS011;56800;52.142;5.364;2022-12-07T16:16:26;6.47;;;1.38;;
69594;SDS011;56800;52.142;5.364;2022-12-07T16:18:53;4.83;;;1.17;;
69594;SDS011;56800;52.142;5.364;2022-12-07T16:21:20;4.70;;;1.10;;
69594;SDS011;56800;52.142;5.364;2022-12-07T16:23:51;3.92;;;1.00;;
69594;SDS011;56800;52.142;5.364;2022-12-07T16:26:18;8.45;;;1.00;;
69594;SDS011;56800;52.142;5.364;2022-12-07T16:28:50;5.03;;;1.60;;
69594;SDS011;56800;52.142;5.364;2022-12-07T16:31:19;7.70;;;1.20;;
69594;SDS011;56800;52.142;5.364;2022-12-07T16:33:47;4.57;;;0.90;;
69594;SDS011;56800;52.142;5.364;2022-12-07T16:36:15;5.38;;;1.08;;
69594;SDS011;56800;52.142;5.364;2022-12-07T16:39:03;4.70;;;0.90;;
69594;SDS011;56800;52.142;5.364;2022-12-07T16:41:30;5.57;;;1.30;;
69594;SDS011;56800;52.142;5.364;2022-12-07T16:44:00;4.53;;;1.13;;